createdAt,value
2022-08-19T00:01:57.476Z,98978.38
2022-08-19T00:06:00.510Z,98982.84
2022-08-19T00:10:02.044Z,98987.38
2022-08-19T00:14:04.643Z,98990.28
2022-08-19T00:18:06.361Z,98988.75
2022-08-19T00:22:09.578Z,98986.94
2022-08-19T00:26:12.072Z,98982.03
2022-08-19T00:30:13.816Z,98977.91
2022-08-19T00:34:15.681Z,98971.16
2022-08-19T00:38:17.192Z,98981.13
2022-08-19T00:42:36.851Z,98985.63
2022-08-19T00:46:40.719Z,98989.16
2022-08-19T00:50:51.858Z,98982.91
2022-08-19T00:54:54.238Z,98974.03
2022-08-19T00:58:59.076Z,98972.81
2022-08-19T01:03:00.658Z,98976.63
2022-08-19T01:07:02.773Z,98973.19
2022-08-19T01:11:05.166Z,98969.66
2022-08-19T01:15:09.018Z,98958.22
2022-08-19T01:19:43.765Z,98971.44
2022-08-19T01:23:46.179Z,98975.88
2022-08-19T01:27:50.374Z,98975.03
2022-08-19T01:31:55.037Z,98972.41
2022-08-19T01:36:09.257Z,98972.59
2022-08-19T01:40:11.603Z,98977.28
2022-08-19T01:44:17.654Z,98977.38
2022-08-19T01:48:20.704Z,98981.06
2022-08-19T01:52:22.113Z,98981.28
2022-08-19T01:56:24.601Z,98987.75
2022-08-19T02:00:28.969Z,98979.44
2022-08-19T02:04:30.501Z,98982.13
2022-08-19T02:08:35.605Z,98985.66
2022-08-19T02:12:37.212Z,98979.63
2022-08-19T02:16:39.411Z,98987.81
2022-08-19T02:20:42.265Z,98988.94
2022-08-19T02:24:43.709Z,98990.91
2022-08-19T02:28:45.097Z,98990.91
2022-08-19T02:32:46.958Z,98987.34
2022-08-19T02:36:51.903Z,98994.59
2022-08-19T02:40:59.910Z,98986.78
2022-08-19T02:45:01.398Z,98993.75
2022-08-19T02:49:07.740Z,98990.34
2022-08-19T02:53:09.205Z,98988.81
2022-08-19T02:57:10.740Z,98999.53
2022-08-19T03:01:20.111Z,98997.91
2022-08-19T03:05:25.263Z,98992.91
2022-08-19T03:09:43.591Z,99000.03
2022-08-19T03:13:45.728Z,99004.50
2022-08-19T03:17:47.385Z,99005.47
2022-08-19T03:21:49.274Z,99002.13
2022-08-19T03:25:58.208Z,99008.38
2022-08-19T03:30:15.358Z,99011.19
2022-08-19T03:34:28.298Z,99007.88
2022-08-19T03:38:30.145Z,99005.41
2022-08-19T03:42:47.780Z,99009.06
2022-08-19T03:46:56.270Z,99013.78
2022-08-19T03:50:59.878Z,99010.38
2022-08-19T03:55:01.897Z,99013.50
2022-08-19T03:59:04.814Z,99009.28
2022-08-19T04:03:06.501Z,99025.09
2022-08-19T04:07:09.233Z,99024.25
2022-08-19T04:11:15.352Z,99024.34
2022-08-19T04:15:16.902Z,99025.31
2022-08-19T04:19:19.526Z,99034.28
2022-08-19T04:23:20.985Z,99036.09
2022-08-19T04:27:22.670Z,99032.56
2022-08-19T04:31:28.599Z,99032.78
2022-08-19T04:35:36.125Z,99018.91
2022-08-19T04:39:58.689Z,99020.81
2022-08-19T04:44:04.595Z,99019.31
2022-08-19T04:48:27.184Z,99027.13
2022-08-19T04:52:28.089Z,99033.22
2022-08-19T04:56:30.056Z,99033.00
2022-08-19T05:00:31.457Z,99046.91
2022-08-19T05:04:40.097Z,99043.38
2022-08-19T05:08:43.993Z,99047.75
2022-08-19T05:12:45.765Z,99047.13
2022-08-19T05:16:47.265Z,99056.91
2022-08-19T05:21:07.574Z,99056.09
2022-08-19T05:25:13.913Z,99060.34
2022-08-19T05:29:19.707Z,99068.91
2022-08-19T05:33:25.623Z,99081.16
2022-08-19T05:37:28.376Z,99078.81
2022-08-19T05:41:31.466Z,99084.28
2022-08-19T05:45:33.638Z,99076.47
2022-08-19T05:49:37.447Z,99073.63
2022-08-19T05:53:38.825Z,99071.47
2022-08-19T05:57:40.998Z,99082.47
2022-08-19T06:01:43.968Z,99082.28
2022-08-19T06:05:51.575Z,99085.34
2022-08-19T06:10:00.246Z,99097.16
2022-08-19T06:14:16.498Z,99100.06
2022-08-19T06:18:18.468Z,99102.16
2022-08-19T06:22:19.922Z,99095.53
2022-08-19T06:26:22.661Z,99105.47
2022-08-19T06:30:24.149Z,99118.53
2022-08-19T06:34:28.262Z,99124.81
2022-08-19T06:38:29.817Z,99126.16
2022-08-19T06:42:32.049Z,99127.03
2022-08-19T06:46:33.543Z,99132.06
2022-08-19T06:50:39.481Z,99130.72
2022-08-19T06:54:56.115Z,99133.97
2022-08-19T06:58:59.313Z,99139.41
2022-08-19T07:03:06.015Z,99146.09
2022-08-19T07:07:19.907Z,99143.75
2022-08-19T07:11:22.056Z,99151.72
2022-08-19T07:15:26.106Z,99149.28
2022-08-19T07:19:29.867Z,99149.59
2022-08-19T07:23:31.366Z,99148.88
2022-08-19T07:27:33.599Z,99141.56
2022-08-19T07:31:37.526Z,99146.59
2022-08-19T07:35:39.003Z,99143.59
2022-08-19T07:39:40.613Z,99153.94
2022-08-19T07:43:43.924Z,99148.63
2022-08-19T07:47:50.463Z,99148.34
2022-08-19T07:52:03.820Z,99149.53
2022-08-19T07:56:06.009Z,99151.13
2022-08-19T08:00:08.198Z,99157.22
2022-08-19T08:04:28.197Z,99153.34
2022-08-19T08:08:48.948Z,99147.16
2022-08-19T08:13:08.718Z,99149.28
2022-08-19T08:17:13.413Z,99146.41
2022-08-19T08:21:14.877Z,99135.59
2022-08-19T08:25:25.032Z,99140.81
2022-08-19T08:29:34.879Z,99153.97
2022-08-19T08:33:37.198Z,99146.38
2022-08-19T08:37:39.628Z,99141.44
2022-08-19T08:41:45.636Z,99132.75
2022-08-19T08:45:56.012Z,99142.22
2022-08-19T08:50:12.169Z,99132.03
2022-08-19T08:54:18.703Z,99137.25
2022-08-19T08:58:32.649Z,99130.69
2022-08-19T09:02:34.278Z,99129.72
2022-08-19T09:07:26.468Z,99129.72
2022-08-19T09:11:42.973Z,99131.03
2022-08-19T09:15:50.345Z,99135.63
2022-08-19T09:19:56.273Z,99131.88
2022-08-19T09:23:59.472Z,99130.75
2022-08-19T09:28:05.604Z,99130.09
2022-08-19T09:32:07.293Z,99128.25
2022-08-19T09:36:35.302Z,99130.75
2022-08-19T09:40:38.575Z,99119.63
2022-08-19T09:44:42.059Z,99118.28
2022-08-19T09:48:45.413Z,99123.97
2022-08-19T09:52:55.264Z,99123.50
2022-08-19T09:57:01.256Z,99123.66
2022-08-19T10:01:07.849Z,99125.59
2022-08-19T10:05:27.873Z,99119.38
2022-08-19T10:09:33.778Z,99112.97
2022-08-19T10:13:36.065Z,99119.41
2022-08-19T10:17:38.161Z,99115.28
2022-08-19T10:21:41.084Z,99131.28
2022-08-19T10:25:43.634Z,99113.81
2022-08-19T10:29:46.406Z,99119.66
2022-08-19T10:33:54.103Z,99110.84
2022-08-19T10:38:00.170Z,99113.88
2022-08-19T10:42:08.025Z,99113.47
2022-08-19T10:46:13.843Z,99107.53
2022-08-19T10:50:34.424Z,99102.88
2022-08-19T10:54:55.174Z,99102.50
2022-08-19T10:58:58.704Z,99097.34
2022-08-19T11:03:00.208Z,99107.41
2022-08-19T11:07:01.760Z,99101.09
2022-08-19T11:11:04.150Z,99105.00
2022-08-19T11:15:09.261Z,99092.84
2022-08-19T11:19:12.721Z,99089.31
2022-08-19T11:23:15.478Z,99081.81
2022-08-19T11:27:16.893Z,99084.34
2022-08-19T11:31:22.630Z,99072.88
2022-08-19T11:35:26.209Z,99075.47
2022-08-19T11:39:28.936Z,99084.88
2022-08-19T11:43:36.737Z,99093.19
2022-08-19T11:47:39.601Z,99097.19
2022-08-19T11:51:44.128Z,99097.66
2022-08-19T11:55:45.786Z,99094.28
2022-08-19T11:59:52.013Z,99099.19
2022-08-19T12:03:55.358Z,99091.88
2022-08-19T12:07:57.084Z,99094.06
2022-08-19T12:11:58.522Z,99077.19
2022-08-19T12:16:00.554Z,99081.00
2022-08-19T12:20:02.374Z,99080.28
2022-08-19T12:24:06.266Z,99076.22
2022-08-19T12:28:08.318Z,99072.84
2022-08-19T12:32:10.382Z,99073.28
2022-08-19T12:36:16.467Z,99067.25
2022-08-19T12:40:20.019Z,99078.88
2022-08-19T12:44:29.420Z,99083.09
2022-08-19T12:48:35.164Z,99081.50
2022-08-19T12:52:38.104Z,99085.91
2022-08-19T12:56:39.599Z,99084.63
2022-08-19T13:00:41.660Z,99084.81
2022-08-19T13:04:43.203Z,99080.16
2022-08-19T13:08:46.459Z,99082.19
2022-08-19T13:12:51.809Z,99079.41
2022-08-19T13:16:53.752Z,99076.31
2022-08-19T13:20:55.153Z,99073.06
2022-08-19T13:24:56.750Z,99069.63
2022-08-19T13:29:17.018Z,99084.22
2022-08-19T13:33:18.781Z,99071.13
2022-08-19T13:37:40.336Z,99067.00
2022-08-19T13:41:48.893Z,99073.69
2022-08-19T13:45:57.239Z,99067.16
2022-08-19T13:49:59.211Z,99068.59
2022-08-19T13:54:00.519Z,99066.38
2022-08-19T13:58:04.864Z,99048.50
2022-08-19T14:02:06.448Z,99054.66
2022-08-19T14:06:08.105Z,99055.28
2022-08-19T14:10:14.653Z,99056.22
2022-08-19T14:14:16.616Z,99052.81
2022-08-19T14:18:19.179Z,99048.94
2022-08-19T14:22:22.222Z,99049.84
2022-08-19T14:26:24.392Z,99056.84
2022-08-19T14:30:29.486Z,99053.75
2022-08-19T14:34:32.869Z,99039.66
2022-08-19T14:38:34.630Z,99050.00
2022-08-19T14:42:36.165Z,99043.34
2022-08-19T14:46:37.614Z,99041.16
2022-08-19T14:50:39.053Z,99037.19
2022-08-19T14:54:40.488Z,99055.53
2022-08-19T14:58:44.008Z,99039.63
2022-08-19T15:02:45.497Z,99034.72
2022-08-19T15:06:47.045Z,99044.94
2022-08-19T15:10:48.709Z,99052.84
2022-08-19T15:14:56.181Z,99052.88
2022-08-19T15:19:00.601Z,99049.94
2022-08-19T15:23:02.053Z,99055.63
2022-08-19T15:27:03.977Z,99053.78
2022-08-19T15:31:06.280Z,99054.63
2022-08-19T15:35:08.358Z,99057.84
2022-08-19T15:39:10.299Z,99056.81
2022-08-19T15:43:11.719Z,99064.59
2022-08-19T15:47:14.637Z,99058.44
2022-08-19T15:51:16.246Z,99060.13
2022-08-19T15:55:32.440Z,99061.09
2022-08-19T15:59:54.432Z,99065.63
2022-08-19T16:04:16.619Z,99056.75
2022-08-19T16:08:18.360Z,99060.28
2022-08-19T16:12:19.937Z,99057.06
2022-08-19T16:16:24.170Z,99058.63
2022-08-19T16:20:33.120Z,99054.19
2022-08-19T16:24:38.540Z,99061.13
2022-08-19T16:28:40.869Z,99067.81
2022-08-19T16:32:45.520Z,99062.66
2022-08-19T16:36:47.101Z,99064.84
2022-08-19T16:40:53.778Z,99071.72
2022-08-19T16:44:55.195Z,99080.09
2022-08-19T16:48:56.523Z,99077.41
2022-08-19T16:52:58.953Z,99086.47
2022-08-19T16:57:00.396Z,99091.38
2022-08-19T17:01:04.302Z,99096.88
2022-08-19T17:05:09.986Z,99091.09
2022-08-19T17:09:11.577Z,99093.50
2022-08-19T17:13:16.202Z,99090.50
2022-08-19T17:17:18.234Z,99098.50
2022-08-19T17:21:27.377Z,99098.31
2022-08-19T17:25:31.296Z,99100.91
2022-08-19T17:29:33.736Z,99105.34
2022-08-19T17:33:36.449Z,99113.03
2022-08-19T17:37:43.126Z,99101.88
2022-08-19T17:41:44.610Z,99104.19
2022-08-19T17:45:46.487Z,99109.44
2022-08-19T17:49:48.353Z,99113.34
2022-08-19T17:53:51.539Z,99115.69
2022-08-19T17:57:52.925Z,99121.34
2022-08-19T18:01:54.720Z,99122.53
2022-08-19T18:05:57.033Z,99128.47
2022-08-19T18:09:58.613Z,99128.69
2022-08-19T18:14:03.330Z,99142.25
2022-08-19T18:18:05.317Z,99147.88
2022-08-19T18:22:27.061Z,99148.56
2022-08-19T18:26:30.090Z,99155.97
2022-08-19T18:30:34.372Z,99161.16
2022-08-19T18:34:36.831Z,99160.78
2022-08-19T18:38:57.028Z,99165.72
2022-08-19T18:43:17.029Z,99174.25
2022-08-19T18:47:37.126Z,99178.50
2022-08-19T18:51:38.525Z,99176.84
2022-08-19T18:55:40.002Z,99175.41
2022-08-19T18:59:43.593Z,99190.09
2022-08-19T19:03:49.108Z,99197.00
2022-08-19T19:07:50.732Z,99202.16
2022-08-19T19:11:58.961Z,99204.44
2022-08-19T19:16:03.426Z,99204.97
2022-08-19T19:20:05.754Z,99215.44
2022-08-19T19:24:09.087Z,99224.09
2022-08-19T19:28:10.535Z,99218.56
2022-08-19T19:32:26.861Z,99227.16
2022-08-19T19:36:28.321Z,99223.63
2022-08-19T19:40:29.785Z,99233.47
2022-08-19T19:44:32.561Z,99236.94
2022-08-19T19:48:35.462Z,99241.28
2022-08-19T19:52:37.660Z,99243.06
2022-08-19T19:56:43.341Z,99246.34
2022-08-19T20:00:45.271Z,99241.94
2022-08-19T20:04:46.658Z,99254.00
2022-08-19T20:09:06.848Z,99247.78
2022-08-19T20:13:09.128Z,99259.00
2022-08-19T20:17:10.665Z,99264.09
2022-08-19T20:21:13.740Z,99256.84
2022-08-19T20:25:16.904Z,99274.19
2022-08-19T20:29:38.848Z,99274.91
2022-08-19T20:33:41.559Z,99270.19
2022-08-19T20:37:42.955Z,99270.69
2022-08-19T20:41:44.813Z,99269.97
2022-08-19T20:45:47.262Z,99275.00
2022-08-19T20:49:48.726Z,99271.09
2022-08-19T20:53:51.061Z,99281.97
2022-08-19T20:57:52.772Z,99276.97
2022-08-19T21:01:54.611Z,99289.53
2022-08-19T21:05:57.585Z,99285.69
2022-08-19T21:09:59.166Z,99284.72
2022-08-19T21:14:00.680Z,99280.78
2022-08-19T21:18:02.979Z,99280.41
2022-08-19T21:22:05.390Z,99284.59
2022-08-19T21:26:08.356Z,99284.66
2022-08-19T21:30:10.744Z,99281.31
2022-08-19T21:34:12.628Z,99286.75
2022-08-19T21:38:14.385Z,99296.44
2022-08-19T21:42:16.418Z,99293.47
2022-08-19T21:46:17.880Z,99287.50
2022-08-19T21:50:19.659Z,99283.16
2022-08-19T21:54:21.104Z,99286.84
2022-08-19T21:58:30.442Z,99296.72
2022-08-19T22:02:32.468Z,99296.84
2022-08-19T22:06:34.034Z,99298.72
2022-08-19T22:10:36.349Z,99291.88
2022-08-19T22:14:40.026Z,99297.47
2022-08-19T22:18:42.270Z,99298.19
2022-08-19T22:22:51.917Z,99297.41
2022-08-19T22:26:53.346Z,99296.81
2022-08-19T22:30:55.878Z,99299.97
2022-08-19T22:34:58.693Z,99299.28
2022-08-19T22:39:00.096Z,99299.34
2022-08-19T22:43:06.064Z,99309.13
2022-08-19T22:47:07.737Z,99296.16
2022-08-19T22:51:27.908Z,99290.13
2022-08-19T22:55:31.183Z,99287.56
2022-08-19T22:59:32.974Z,99290.25
2022-08-19T23:03:35.097Z,99288.50
2022-08-19T23:07:37.013Z,99287.75
2022-08-19T23:11:42.138Z,99280.97
2022-08-19T23:15:46.106Z,99271.75
2022-08-19T23:19:47.521Z,99271.22
2022-08-19T23:23:48.975Z,99268.69
2022-08-19T23:28:19.640Z,99259.31
2022-08-19T23:36:41.113Z,99278.84
2022-08-19T23:40:43.089Z,99278.13
2022-08-19T23:44:52.260Z,99270.31
2022-08-19T23:48:54.745Z,99271.47
2022-08-19T23:52:58.009Z,99273.91
2022-08-19T23:56:59.714Z,99253.94
